sensor_id;sensor_type;location;lat;lon;timestamp;P1;durP1;ratioP1;P2;durP2;ratioP2
71046;SDS011;58703;48.978;8.982;2022-07-21T00:02:00;22.10;;;15.90;;
71046;SDS011;58703;48.978;8.982;2022-07-21T00:04:28;18.73;;;15.35;;
71046;SDS011;58703;48.978;8.982;2022-07-21T00:06:54;19.92;;;14.75;;
71046;SDS011;58703;48.978;8.982;2022-07-21T00:09:21;16.20;;;13.80;;
71046;SDS011;58703;48.978;8.982;2022-07-21T00:11:48;16.70;;;14.15;;
71046;SDS011;58703;48.978;8.982;2022-07-21T00:14:15;19.52;;;13.60;;
71046;SDS011;58703;48.978;8.982;2022-07-21T00:16:42;17.98;;;13.32;;
71046;SDS011;58703;48.978;8.982;2022-07-21T00:19:09;18.00;;;14.88;;
71046;SDS011;58703;48.978;8.982;2022-07-21T00:21:37;21.57;;;15.13;;
71046;SDS011;58703;48.978;8.982;2022-07-21T00:24:04;17.63;;;15.23;;
71046;SDS011;58703;48.978;8.982;2022-07-21T00:26:31;20.85;;;16.63;;
71046;SDS011;58703;48.978;8.982;2022-07-21T00:28:58;22.92;;;16.25;;
71046;SDS011;58703;48.978;8.982;2022-07-21T00:31:25;24.25;;;17.60;;
71046;SDS011;58703;48.978;8.982;2022-07-21T00:33:52;26.73;;;20.50;;
71046;SDS011;58703;48.978;8.982;2022-07-21T00:36:19;32.95;;;22.45;;
71046;SDS011;58703;48.978;8.982;2022-07-21T00:38:47;28.75;;;20.90;;
71046;SDS011;58703;48.978;8.982;2022-07-21T00:41:14;26.08;;;19.75;;
71046;SDS011;58703;48.978;8.982;2022-07-21T00:43:41;23.70;;;19.33;;
71046;SDS011;58703;48.978;8.982;2022-07-21T00:46:08;27.97;;;19.50;;
71046;SDS011;58703;48.978;8.982;2022-07-21T00:48:35;27.30;;;18.67;;
71046;SDS011;58703;48.978;8.982;2022-07-21T00:51:00;26.85;;;20.17;;
71046;SDS011;58703;48.978;8.982;2022-07-21T00:53:27;23.40;;;17.23;;
71046;SDS011;58703;48.978;8.982;2022-07-21T00:55:54;26.02;;;17.55;;
71046;SDS011;58703;48.978;8.982;2022-07-21T00:58:22;20.48;;;16.60;;
71046;SDS011;58703;48.978;8.982;2022-07-21T01:00:50;25.67;;;17.48;;
71046;SDS011;58703;48.978;8.982;2022-07-21T01:03:18;26.60;;;20.23;;
71046;SDS011;58703;48.978;8.982;2022-07-21T01:05:45;27.63;;;20.77;;
71046;SDS011;58703;48.978;8.982;2022-07-21T01:08:12;26.15;;;20.25;;
71046;SDS011;58703;48.978;8.982;2022-07-21T01:10:40;27.25;;;20.45;;
71046;SDS011;58703;48.978;8.982;2022-07-21T01:13:07;29.08;;;20.48;;
71046;SDS011;58703;48.978;8.982;2022-07-21T01:15:34;28.13;;;20.38;;
71046;SDS011;58703;48.978;8.982;2022-07-21T01:18:01;29.23;;;18.40;;
71046;SDS011;58703;48.978;8.982;2022-07-21T01:20:28;23.58;;;18.33;;
71046;SDS011;58703;48.978;8.982;2022-07-21T01:23:00;25.75;;;18.30;;
71046;SDS011;58703;48.978;8.982;2022-07-21T01:25:27;22.67;;;17.70;;
71046;SDS011;58703;48.978;8.982;2022-07-21T01:27:54;22.92;;;18.75;;
71046;SDS011;58703;48.978;8.982;2022-07-21T01:30:21;23.83;;;18.00;;
71046;SDS011;58703;48.978;8.982;2022-07-21T01:32:48;23.60;;;18.05;;
71046;SDS011;58703;48.978;8.982;2022-07-21T01:35:15;18.58;;;16.17;;
71046;SDS011;58703;48.978;8.982;2022-07-21T01:37:43;22.70;;;16.67;;
71046;SDS011;58703;48.978;8.982;2022-07-21T01:40:12;22.02;;;17.20;;
71046;SDS011;58703;48.978;8.982;2022-07-21T01:43:03;24.03;;;17.10;;
71046;SDS011;58703;48.978;8.982;2022-07-21T01:45:30;18.15;;;16.02;;
71046;SDS011;58703;48.978;8.982;2022-07-21T01:47:57;21.83;;;16.80;;
71046;SDS011;58703;48.978;8.982;2022-07-21T01:50:24;18.73;;;13.55;;
71046;SDS011;58703;48.978;8.982;2022-07-21T01:52:57;17.10;;;12.82;;
71046;SDS011;58703;48.978;8.982;2022-07-21T01:55:25;16.73;;;12.33;;
71046;SDS011;58703;48.978;8.982;2022-07-21T01:57:52;12.65;;;10.45;;
71046;SDS011;58703;48.978;8.982;2022-07-21T02:00:19;13.73;;;11.25;;
71046;SDS011;58703;48.978;8.982;2022-07-21T02:02:47;15.07;;;12.25;;
71046;SDS011;58703;48.978;8.982;2022-07-21T02:05:13;14.23;;;11.68;;
71046;SDS011;58703;48.978;8.982;2022-07-21T02:07:40;17.27;;;11.33;;
71046;SDS011;58703;48.978;8.982;2022-07-21T02:10:08;13.43;;;11.80;;
71046;SDS011;58703;48.978;8.982;2022-07-21T02:12:35;12.80;;;10.85;;
71046;SDS011;58703;48.978;8.982;2022-07-21T02:15:02;14.75;;;11.40;;
71046;SDS011;58703;48.978;8.982;2022-07-21T02:17:29;17.13;;;11.77;;
71046;SDS011;58703;48.978;8.982;2022-07-21T02:19:56;16.70;;;12.73;;
71046;SDS011;58703;48.978;8.982;2022-07-21T02:22:23;16.13;;;13.63;;
71046;SDS011;58703;48.978;8.982;2022-07-21T02:24:50;19.00;;;14.45;;
71046;SDS011;58703;48.978;8.982;2022-07-21T02:27:16;19.52;;;15.30;;
71046;SDS011;58703;48.978;8.982;2022-07-21T02:29:43;18.13;;;14.60;;
71046;SDS011;58703;48.978;8.982;2022-07-21T02:32:10;18.07;;;14.27;;
71046;SDS011;58703;48.978;8.982;2022-07-21T02:34:36;20.33;;;13.90;;
71046;SDS011;58703;48.978;8.982;2022-07-21T02:37:03;18.80;;;13.38;;
71046;SDS011;58703;48.978;8.982;2022-07-21T02:39:30;16.92;;;13.45;;
71046;SDS011;58703;48.978;8.982;2022-07-21T02:41:57;17.13;;;13.95;;
71046;SDS011;58703;48.978;8.982;2022-07-21T02:44:25;14.97;;;12.93;;
71046;SDS011;58703;48.978;8.982;2022-07-21T02:46:52;16.30;;;13.80;;
71046;SDS011;58703;48.978;8.982;2022-07-21T02:49:19;16.00;;;13.00;;
71046;SDS011;58703;48.978;8.982;2022-07-21T02:51:45;16.48;;;13.65;;
71046;SDS011;58703;48.978;8.982;2022-07-21T02:54:12;15.88;;;13.05;;
71046;SDS011;58703;48.978;8.982;2022-07-21T02:56:38;18.50;;;13.80;;
71046;SDS011;58703;48.978;8.982;2022-07-21T02:59:05;18.92;;;14.35;;
71046;SDS011;58703;48.978;8.982;2022-07-21T03:01:32;18.33;;;15.68;;
71046;SDS011;58703;48.978;8.982;2022-07-21T03:03:57;19.30;;;15.13;;
71046;SDS011;58703;48.978;8.982;2022-07-21T03:06:24;16.40;;;13.77;;
71046;SDS011;58703;48.978;8.982;2022-07-21T03:08:51;19.27;;;13.73;;
71046;SDS011;58703;48.978;8.982;2022-07-21T03:11:18;17.08;;;12.73;;
71046;SDS011;58703;48.978;8.982;2022-07-21T03:13:45;15.32;;;13.23;;
71046;SDS011;58703;48.978;8.982;2022-07-21T03:16:12;15.45;;;12.52;;
71046;SDS011;58703;48.978;8.982;2022-07-21T03:18:39;14.85;;;11.98;;
71046;SDS011;58703;48.978;8.982;2022-07-21T03:21:07;15.33;;;11.83;;
71046;SDS011;58703;48.978;8.982;2022-07-21T03:23:34;14.20;;;12.68;;
71046;SDS011;58703;48.978;8.982;2022-07-21T03:26:01;14.43;;;12.50;;
71046;SDS011;58703;48.978;8.982;2022-07-21T03:28:28;14.48;;;12.93;;
71046;SDS011;58703;48.978;8.982;2022-07-21T03:30:55;18.02;;;12.32;;
71046;SDS011;58703;48.978;8.982;2022-07-21T03:33:22;17.20;;;12.80;;
71046;SDS011;58703;48.978;8.982;2022-07-21T03:35:49;16.55;;;12.95;;
71046;SDS011;58703;48.978;8.982;2022-07-21T03:38:15;15.95;;;13.15;;
71046;SDS011;58703;48.978;8.982;2022-07-21T03:40:42;18.25;;;13.68;;
71046;SDS011;58703;48.978;8.982;2022-07-21T03:43:09;17.98;;;13.10;;
71046;SDS011;58703;48.978;8.982;2022-07-21T03:45:36;15.07;;;11.80;;
71046;SDS011;58703;48.978;8.982;2022-07-21T03:48:04;14.80;;;12.07;;
71046;SDS011;58703;48.978;8.982;2022-07-21T03:50:34;17.85;;;13.05;;
71046;SDS011;58703;48.978;8.982;2022-07-21T03:53:03;16.48;;;12.90;;
71046;SDS011;58703;48.978;8.982;2022-07-21T03:55:31;23.80;;;13.48;;
71046;SDS011;58703;48.978;8.982;2022-07-21T03:57:59;17.20;;;12.87;;
71046;SDS011;58703;48.978;8.982;2022-07-21T04:00:32;19.42;;;13.02;;
71046;SDS011;58703;48.978;8.982;2022-07-21T04:03:05;15.50;;;12.73;;
71046;SDS011;58703;48.978;8.982;2022-07-21T04:05:33;18.33;;;14.07;;
71046;SDS011;58703;48.978;8.982;2022-07-21T04:08:00;17.08;;;13.38;;
71046;SDS011;58703;48.978;8.982;2022-07-21T04:10:30;16.57;;;12.83;;
71046;SDS011;58703;48.978;8.982;2022-07-21T04:12:58;16.23;;;12.55;;
71046;SDS011;58703;48.978;8.982;2022-07-21T04:15:25;14.38;;;12.75;;
71046;SDS011;58703;48.978;8.982;2022-07-21T04:17:52;18.75;;;14.23;;
71046;SDS011;58703;48.978;8.982;2022-07-21T04:20:19;16.10;;;14.40;;
71046;SDS011;58703;48.978;8.982;2022-07-21T04:22:47;17.43;;;14.27;;
71046;SDS011;58703;48.978;8.982;2022-07-21T04:25:16;17.90;;;14.23;;
71046;SDS011;58703;48.978;8.982;2022-07-21T04:27:44;21.00;;;14.77;;
71046;SDS011;58703;48.978;8.982;2022-07-21T04:30:13;18.15;;;14.43;;
71046;SDS011;58703;48.978;8.982;2022-07-21T04:32:42;15.70;;;13.23;;
71046;SDS011;58703;48.978;8.982;2022-07-21T04:35:09;17.10;;;13.70;;
71046;SDS011;58703;48.978;8.982;2022-07-21T04:37:36;16.10;;;13.80;;
71046;SDS011;58703;48.978;8.982;2022-07-21T04:40:04;18.95;;;14.40;;
71046;SDS011;58703;48.978;8.982;2022-07-21T04:42:33;16.80;;;13.10;;
71046;SDS011;58703;48.978;8.982;2022-07-21T04:45:00;15.95;;;13.85;;
71046;SDS011;58703;48.978;8.982;2022-07-21T04:47:27;14.23;;;12.33;;
71046;SDS011;58703;48.978;8.982;2022-07-21T04:49:53;16.30;;;12.98;;
71046;SDS011;58703;48.978;8.982;2022-07-21T04:52:20;19.55;;;14.00;;
71046;SDS011;58703;48.978;8.982;2022-07-21T04:54:47;16.50;;;13.32;;
71046;SDS011;58703;48.978;8.982;2022-07-21T04:57:13;16.33;;;13.13;;
71046;SDS011;58703;48.978;8.982;2022-07-21T04:59:40;16.47;;;12.90;;
71046;SDS011;58703;48.978;8.982;2022-07-21T05:02:07;16.60;;;13.45;;
71046;SDS011;58703;48.978;8.982;2022-07-21T05:04:34;16.70;;;13.73;;
71046;SDS011;58703;48.978;8.982;2022-07-21T05:07:00;17.08;;;14.40;;
71046;SDS011;58703;48.978;8.982;2022-07-21T05:09:27;16.90;;;13.90;;
71046;SDS011;58703;48.978;8.982;2022-07-21T05:11:53;14.80;;;13.30;;
71046;SDS011;58703;48.978;8.982;2022-07-21T05:14:20;18.00;;;13.73;;
71046;SDS011;58703;48.978;8.982;2022-07-21T05:16:47;16.38;;;13.80;;
71046;SDS011;58703;48.978;8.982;2022-07-21T05:19:14;18.63;;;13.55;;
71046;SDS011;58703;48.978;8.982;2022-07-21T05:21:41;16.20;;;13.67;;
71046;SDS011;58703;48.978;8.982;2022-07-21T05:24:08;15.73;;;14.05;;
71046;SDS011;58703;48.978;8.982;2022-07-21T05:26:36;19.20;;;14.85;;
71046;SDS011;58703;48.978;8.982;2022-07-21T05:29:03;17.75;;;13.55;;
71046;SDS011;58703;48.978;8.982;2022-07-21T05:31:30;19.95;;;12.98;;
71046;SDS011;58703;48.978;8.982;2022-07-21T05:33:57;14.30;;;12.73;;
71046;SDS011;58703;48.978;8.982;2022-07-21T05:36:24;14.73;;;12.63;;
71046;SDS011;58703;48.978;8.982;2022-07-21T05:38:51;19.33;;;14.70;;
71046;SDS011;58703;48.978;8.982;2022-07-21T05:41:18;18.67;;;12.48;;
71046;SDS011;58703;48.978;8.982;2022-07-21T05:43:45;13.50;;;12.10;;
71046;SDS011;58703;48.978;8.982;2022-07-21T05:46:12;12.60;;;11.13;;
71046;SDS011;58703;48.978;8.982;2022-07-21T05:48:38;16.02;;;12.27;;
71046;SDS011;58703;48.978;8.982;2022-07-21T05:51:06;13.18;;;10.98;;
71046;SDS011;58703;48.978;8.982;2022-07-21T05:53:33;14.57;;;10.45;;
71046;SDS011;58703;48.978;8.982;2022-07-21T05:56:00;13.38;;;10.20;;
71046;SDS011;58703;48.978;8.982;2022-07-21T05:58:28;11.63;;;10.47;;
71046;SDS011;58703;48.978;8.982;2022-07-21T06:00:55;13.02;;;10.43;;
71046;SDS011;58703;48.978;8.982;2022-07-21T06:03:35;13.52;;;9.90;;
71046;SDS011;58703;48.978;8.982;2022-07-21T06:06:03;13.65;;;10.20;;
71046;SDS011;58703;48.978;8.982;2022-07-21T06:08:30;10.98;;;9.85;;
71046;SDS011;58703;48.978;8.982;2022-07-21T06:10:57;14.73;;;9.83;;
71046;SDS011;58703;48.978;8.982;2022-07-21T06:13:24;12.13;;;10.07;;
71046;SDS011;58703;48.978;8.982;2022-07-21T06:15:50;13.35;;;11.80;;
71046;SDS011;58703;48.978;8.982;2022-07-21T06:18:17;13.88;;;11.23;;
71046;SDS011;58703;48.978;8.982;2022-07-21T06:20:44;12.20;;;10.90;;
71046;SDS011;58703;48.978;8.982;2022-07-21T06:23:11;15.50;;;11.40;;
71046;SDS011;58703;48.978;8.982;2022-07-21T06:25:38;14.48;;;11.50;;
71046;SDS011;58703;48.978;8.982;2022-07-21T06:28:05;14.65;;;10.75;;
71046;SDS011;58703;48.978;8.982;2022-07-21T06:30:32;12.60;;;11.30;;
71046;SDS011;58703;48.978;8.982;2022-07-21T06:32:59;14.18;;;11.57;;
71046;SDS011;58703;48.978;8.982;2022-07-21T06:35:26;16.33;;;11.30;;
71046;SDS011;58703;48.978;8.982;2022-07-21T06:37:53;12.57;;;10.63;;
71046;SDS011;58703;48.978;8.982;2022-07-21T06:40:20;14.80;;;10.55;;
71046;SDS011;58703;48.978;8.982;2022-07-21T06:42:47;12.15;;;10.80;;
71046;SDS011;58703;48.978;8.982;2022-07-21T06:45:14;11.10;;;8.85;;
71046;SDS011;58703;48.978;8.982;2022-07-21T06:47:40;12.10;;;10.20;;
71046;SDS011;58703;48.978;8.982;2022-07-21T06:50:08;11.50;;;9.48;;
71046;SDS011;58703;48.978;8.982;2022-07-21T06:52:36;12.20;;;9.90;;
71046;SDS011;58703;48.978;8.982;2022-07-21T06:55:04;10.30;;;8.80;;
71046;SDS011;58703;48.978;8.982;2022-07-21T06:57:32;10.13;;;8.85;;
71046;SDS011;58703;48.978;8.982;2022-07-21T07:00:00;10.57;;;8.63;;
71046;SDS011;58703;48.978;8.982;2022-07-21T07:02:30;10.45;;;8.32;;
71046;SDS011;58703;48.978;8.982;2022-07-21T07:04:56;11.52;;;8.57;;
71046;SDS011;58703;48.978;8.982;2022-07-21T07:07:23;11.82;;;8.90;;
71046;SDS011;58703;48.978;8.982;2022-07-21T07:09:50;10.25;;;8.50;;
71046;SDS011;58703;48.978;8.982;2022-07-21T07:12:17;10.00;;;9.00;;
71046;SDS011;58703;48.978;8.982;2022-07-21T07:14:44;10.48;;;8.65;;
71046;SDS011;58703;48.978;8.982;2022-07-21T07:17:14;9.10;;;7.43;;
71046;SDS011;58703;48.978;8.982;2022-07-21T07:19:42;8.77;;;7.13;;
71046;SDS011;58703;48.978;8.982;2022-07-21T07:22:09;9.23;;;8.05;;
71046;SDS011;58703;48.978;8.982;2022-07-21T07:24:36;9.97;;;7.87;;
71046;SDS011;58703;48.978;8.982;2022-07-21T07:27:03;10.90;;;7.78;;
71046;SDS011;58703;48.978;8.982;2022-07-21T07:29:30;9.27;;;7.88;;
71046;SDS011;58703;48.978;8.982;2022-07-21T07:31:58;8.93;;;7.53;;
71046;SDS011;58703;48.978;8.982;2022-07-21T07:34:25;10.35;;;8.40;;
71046;SDS011;58703;48.978;8.982;2022-07-21T07:36:52;9.50;;;8.50;;
71046;SDS011;58703;48.978;8.982;2022-07-21T07:39:18;8.73;;;7.47;;
71046;SDS011;58703;48.978;8.982;2022-07-21T07:41:45;8.60;;;7.80;;
71046;SDS011;58703;48.978;8.982;2022-07-21T07:44:12;7.95;;;7.13;;
71046;SDS011;58703;48.978;8.982;2022-07-21T07:46:39;8.77;;;7.97;;
71046;SDS011;58703;48.978;8.982;2022-07-21T07:49:06;9.07;;;7.27;;
71046;SDS011;58703;48.978;8.982;2022-07-21T07:51:33;7.85;;;7.00;;
71046;SDS011;58703;48.978;8.982;2022-07-21T07:53:59;9.43;;;7.00;;
71046;SDS011;58703;48.978;8.982;2022-07-21T07:56:29;8.02;;;6.80;;
71046;SDS011;58703;48.978;8.982;2022-07-21T07:58:57;9.07;;;6.93;;
71046;SDS011;58703;48.978;8.982;2022-07-21T08:01:24;7.90;;;6.40;;
71046;SDS011;58703;48.978;8.982;2022-07-21T08:03:51;7.88;;;7.07;;
71046;SDS011;58703;48.978;8.982;2022-07-21T08:06:16;8.25;;;6.03;;
71046;SDS011;58703;48.978;8.982;2022-07-21T08:08:43;7.90;;;6.47;;
71046;SDS011;58703;48.978;8.982;2022-07-21T08:11:09;7.40;;;6.70;;
71046;SDS011;58703;48.978;8.982;2022-07-21T08:13:38;8.15;;;6.38;;
71046;SDS011;58703;48.978;8.982;2022-07-21T08:16:05;7.53;;;6.25;;
71046;SDS011;58703;48.978;8.982;2022-07-21T08:18:32;6.80;;;5.70;;
71046;SDS011;58703;48.978;8.982;2022-07-21T08:20:59;7.53;;;5.57;;
71046;SDS011;58703;48.978;8.982;2022-07-21T08:23:26;6.25;;;5.65;;
71046;SDS011;58703;48.978;8.982;2022-07-21T08:25:52;6.22;;;5.55;;
71046;SDS011;58703;48.978;8.982;2022-07-21T08:28:19;6.97;;;5.85;;
71046;SDS011;58703;48.978;8.982;2022-07-21T08:30:46;6.33;;;5.60;;
71046;SDS011;58703;48.978;8.982;2022-07-21T08:33:13;6.72;;;5.53;;
71046;SDS011;58703;48.978;8.982;2022-07-21T08:35:39;6.75;;;5.60;;
71046;SDS011;58703;48.978;8.982;2022-07-21T08:38:07;6.32;;;5.45;;
71046;SDS011;58703;48.978;8.982;2022-07-21T08:40:37;13.57;;;6.10;;
71046;SDS011;58703;48.978;8.982;2022-07-21T08:43:05;5.97;;;5.37;;
71046;SDS011;58703;48.978;8.982;2022-07-21T08:45:36;6.57;;;5.25;;
71046;SDS011;58703;48.978;8.982;2022-07-21T08:48:04;7.70;;;6.15;;
71046;SDS011;58703;48.978;8.982;2022-07-21T08:50:32;6.90;;;4.93;;
71046;SDS011;58703;48.978;8.982;2022-07-21T08:53:00;6.88;;;5.13;;
71046;SDS011;58703;48.978;8.982;2022-07-21T08:55:28;7.50;;;4.93;;
71046;SDS011;58703;48.978;8.982;2022-07-21T08:57:58;5.00;;;4.53;;
71046;SDS011;58703;48.978;8.982;2022-07-21T09:00:26;10.40;;;6.00;;
71046;SDS011;58703;48.978;8.982;2022-07-21T09:08:35;4.90;;;4.33;;
71046;SDS011;58703;48.978;8.982;2022-07-21T09:11:12;4.88;;;4.10;;
71046;SDS011;58703;48.978;8.982;2022-07-21T09:13:40;5.88;;;4.30;;
71046;SDS011;58703;48.978;8.982;2022-07-21T09:16:09;5.60;;;4.10;;
71046;SDS011;58703;48.978;8.982;2022-07-21T09:18:57;4.38;;;3.97;;
71046;SDS011;58703;48.978;8.982;2022-07-21T09:21:23;6.27;;;4.57;;
71046;SDS011;58703;48.978;8.982;2022-07-21T09:23:50;4.38;;;3.97;;
71046;SDS011;58703;48.978;8.982;2022-07-21T09:26:17;4.80;;;4.40;;
71046;SDS011;58703;48.978;8.982;2022-07-21T09:28:44;4.70;;;4.10;;
71046;SDS011;58703;48.978;8.982;2022-07-21T09:31:11;6.32;;;4.78;;
71046;SDS011;58703;48.978;8.982;2022-07-21T09:36:13;4.65;;;4.00;;
71046;SDS011;58703;48.978;8.982;2022-07-21T09:38:45;5.25;;;4.10;;
71046;SDS011;58703;48.978;8.982;2022-07-21T09:41:19;5.25;;;4.07;;
71046;SDS011;58703;48.978;8.982;2022-07-21T09:43:49;5.18;;;4.28;;
71046;SDS011;58703;48.978;8.982;2022-07-21T09:46:23;4.17;;;3.77;;
71046;SDS011;58703;48.978;8.982;2022-07-21T09:48:55;6.32;;;3.95;;
71046;SDS011;58703;48.978;8.982;2022-07-21T09:51:32;5.95;;;3.40;;
71046;SDS011;58703;48.978;8.982;2022-07-21T09:56:33;3.95;;;3.50;;
71046;SDS011;58703;48.978;8.982;2022-07-21T09:59:11;3.57;;;3.27;;
71046;SDS011;58703;48.978;8.982;2022-07-21T10:01:39;3.85;;;2.92;;
71046;SDS011;58703;48.978;8.982;2022-07-21T10:04:19;5.05;;;3.30;;
71046;SDS011;58703;48.978;8.982;2022-07-21T10:06:48;4.28;;;3.85;;
71046;SDS011;58703;48.978;8.982;2022-07-21T10:09:14;4.18;;;3.83;;
71046;SDS011;58703;48.978;8.982;2022-07-21T10:11:41;4.37;;;3.50;;
71046;SDS011;58703;48.978;8.982;2022-07-21T10:14:12;4.68;;;3.65;;
71046;SDS011;58703;48.978;8.982;2022-07-21T10:16:39;5.93;;;3.95;;
71046;SDS011;58703;48.978;8.982;2022-07-21T10:19:19;4.15;;;3.75;;
71046;SDS011;58703;48.978;8.982;2022-07-21T10:22:00;4.70;;;4.05;;
71046;SDS011;58703;48.978;8.982;2022-07-21T10:24:30;5.67;;;4.23;;
71046;SDS011;58703;48.978;8.982;2022-07-21T10:27:05;5.57;;;4.38;;
71046;SDS011;58703;48.978;8.982;2022-07-21T10:29:52;5.38;;;3.88;;
71046;SDS011;58703;48.978;8.982;2022-07-21T10:32:48;4.50;;;3.70;;
71046;SDS011;58703;48.978;8.982;2022-07-21T10:35:28;5.45;;;3.67;;
71046;SDS011;58703;48.978;8.982;2022-07-21T10:37:56;6.33;;;3.87;;
71046;SDS011;58703;48.978;8.982;2022-07-21T10:45:35;5.00;;;3.85;;
71046;SDS011;58703;48.978;8.982;2022-07-21T10:48:08;5.22;;;4.10;;
71046;SDS011;58703;48.978;8.982;2022-07-21T10:50:58;5.00;;;3.93;;
71046;SDS011;58703;48.978;8.982;2022-07-21T10:53:25;5.80;;;3.55;;
71046;SDS011;58703;48.978;8.982;2022-07-21T10:55:53;5.22;;;4.72;;
71046;SDS011;58703;48.978;8.982;2022-07-21T10:58:29;4.85;;;4.22;;
71046;SDS011;58703;48.978;8.982;2022-07-21T11:01:04;4.90;;;4.40;;
71046;SDS011;58703;48.978;8.982;2022-07-21T11:03:36;4.87;;;4.43;;
71046;SDS011;58703;48.978;8.982;2022-07-21T11:06:12;5.75;;;4.28;;
71046;SDS011;58703;48.978;8.982;2022-07-21T11:09:08;6.50;;;4.38;;
71046;SDS011;58703;48.978;8.982;2022-07-21T11:11:55;4.72;;;4.32;;
71046;SDS011;58703;48.978;8.982;2022-07-21T11:14:39;5.82;;;5.32;;
71046;SDS011;58703;48.978;8.982;2022-07-21T11:17:09;5.60;;;4.27;;
71046;SDS011;58703;48.978;8.982;2022-07-21T11:20:15;5.10;;;4.60;;
71046;SDS011;58703;48.978;8.982;2022-07-21T11:22:42;5.15;;;4.13;;
71046;SDS011;58703;48.978;8.982;2022-07-21T11:25:19;5.15;;;4.43;;
71046;SDS011;58703;48.978;8.982;2022-07-21T11:27:46;5.20;;;4.50;;
71046;SDS011;58703;48.978;8.982;2022-07-21T11:30:13;5.30;;;4.53;;
71046;SDS011;58703;48.978;8.982;2022-07-21T11:32:47;5.18;;;4.68;;
71046;SDS011;58703;48.978;8.982;2022-07-21T11:35:14;6.50;;;4.57;;
71046;SDS011;58703;48.978;8.982;2022-07-21T11:37:44;5.22;;;4.60;;
71046;SDS011;58703;48.978;8.982;2022-07-21T11:42:41;6.13;;;4.37;;
71046;SDS011;58703;48.978;8.982;2022-07-21T11:45:12;5.70;;;4.80;;
71046;SDS011;58703;48.978;8.982;2022-07-21T11:47:40;6.38;;;5.00;;
71046;SDS011;58703;48.978;8.982;2022-07-21T11:50:08;8.10;;;4.65;;
71046;SDS011;58703;48.978;8.982;2022-07-21T11:52:37;7.93;;;5.53;;
71046;SDS011;58703;48.978;8.982;2022-07-21T11:55:08;8.13;;;5.27;;
71046;SDS011;58703;48.978;8.982;2022-07-21T11:57:38;5.68;;;5.03;;
71046;SDS011;58703;48.978;8.982;2022-07-21T12:00:08;6.20;;;4.82;;
71046;SDS011;58703;48.978;8.982;2022-07-21T12:02:35;5.63;;;5.10;;
71046;SDS011;58703;48.978;8.982;2022-07-21T12:05:03;5.53;;;4.40;;
71046;SDS011;58703;48.978;8.982;2022-07-21T12:07:42;5.43;;;4.70;;
71046;SDS011;58703;48.978;8.982;2022-07-21T12:12:50;5.13;;;4.60;;
71046;SDS011;58703;48.978;8.982;2022-07-21T12:15:21;5.30;;;4.38;;
71046;SDS011;58703;48.978;8.982;2022-07-21T12:17:57;4.88;;;4.28;;
71046;SDS011;58703;48.978;8.982;2022-07-21T12:20:29;5.67;;;3.50;;
71046;SDS011;58703;48.978;8.982;2022-07-21T12:22:56;5.10;;;4.13;;
71046;SDS011;58703;48.978;8.982;2022-07-21T12:25:40;6.40;;;4.30;;
71046;SDS011;58703;48.978;8.982;2022-07-21T12:28:07;3.58;;;3.28;;
71046;SDS011;58703;48.978;8.982;2022-07-21T12:33:14;3.80;;;3.20;;
71046;SDS011;58703;48.978;8.982;2022-07-21T12:35:42;3.75;;;3.45;;
71046;SDS011;58703;48.978;8.982;2022-07-21T12:38:15;4.05;;;3.65;;
71046;SDS011;58703;48.978;8.982;2022-07-21T12:40:46;3.53;;;2.90;;
71046;SDS011;58703;48.978;8.982;2022-07-21T12:43:19;3.38;;;3.08;;
71046;SDS011;58703;48.978;8.982;2022-07-21T12:49:02;2.67;;;2.45;;
71046;SDS011;58703;48.978;8.982;2022-07-21T12:51:29;4.57;;;2.53;;
71046;SDS011;58703;48.978;8.982;2022-07-21T12:53:56;3.33;;;2.73;;
71046;SDS011;58703;48.978;8.982;2022-07-21T12:56:27;4.53;;;2.97;;
71046;SDS011;58703;48.978;8.982;2022-07-21T12:58:57;3.85;;;2.90;;
71046;SDS011;58703;48.978;8.982;2022-07-21T13:01:26;4.15;;;3.65;;
71046;SDS011;58703;48.978;8.982;2022-07-21T13:03:53;4.75;;;2.95;;
71046;SDS011;58703;48.978;8.982;2022-07-21T13:06:21;3.50;;;3.20;;
71046;SDS011;58703;48.978;8.982;2022-07-21T13:08:47;3.58;;;3.28;;
71046;SDS011;58703;48.978;8.982;2022-07-21T13:11:15;4.30;;;3.28;;
71046;SDS011;58703;48.978;8.982;2022-07-21T13:13:45;5.28;;;3.30;;
71046;SDS011;58703;48.978;8.982;2022-07-21T13:16:13;3.78;;;3.17;;
71046;SDS011;58703;48.978;8.982;2022-07-21T13:18:41;4.17;;;3.40;;
71046;SDS011;58703;48.978;8.982;2022-07-21T13:21:08;3.80;;;3.33;;
71046;SDS011;58703;48.978;8.982;2022-07-21T13:23:34;4.75;;;4.32;;
71046;SDS011;58703;48.978;8.982;2022-07-21T13:26:00;3.40;;;3.10;;
71046;SDS011;58703;48.978;8.982;2022-07-21T13:28:27;4.03;;;3.65;;
71046;SDS011;58703;48.978;8.982;2022-07-21T13:30:54;4.50;;;4.10;;
71046;SDS011;58703;48.978;8.982;2022-07-21T13:33:21;5.57;;;3.65;;
71046;SDS011;58703;48.978;8.982;2022-07-21T13:35:48;5.28;;;3.83;;
71046;SDS011;58703;48.978;8.982;2022-07-21T13:38:13;7.17;;;4.10;;
71046;SDS011;58703;48.978;8.982;2022-07-21T13:40:41;8.93;;;3.72;;
71046;SDS011;58703;48.978;8.982;2022-07-21T13:43:08;3.88;;;3.47;;
71046;SDS011;58703;48.978;8.982;2022-07-21T13:45:35;4.10;;;3.70;;
71046;SDS011;58703;48.978;8.982;2022-07-21T13:48:02;6.30;;;3.30;;
71046;SDS011;58703;48.978;8.982;2022-07-21T13:50:30;4.27;;;3.70;;
71046;SDS011;58703;48.978;8.982;2022-07-21T13:52:56;3.42;;;3.10;;
71046;SDS011;58703;48.978;8.982;2022-07-21T13:55:23;6.07;;;3.17;;
71046;SDS011;58703;48.978;8.982;2022-07-21T13:57:50;5.18;;;3.58;;
71046;SDS011;58703;48.978;8.982;2022-07-21T14:00:17;3.97;;;3.60;;
71046;SDS011;58703;48.978;8.982;2022-07-21T14:02:44;4.03;;;3.73;;
71046;SDS011;58703;48.978;8.982;2022-07-21T14:05:11;4.85;;;3.45;;
71046;SDS011;58703;48.978;8.982;2022-07-21T14:07:37;4.80;;;3.78;;
71046;SDS011;58703;48.978;8.982;2022-07-21T14:10:05;4.88;;;3.75;;
71046;SDS011;58703;48.978;8.982;2022-07-21T14:12:32;4.03;;;3.72;;
71046;SDS011;58703;48.978;8.982;2022-07-21T14:14:59;3.73;;;3.43;;
71046;SDS011;58703;48.978;8.982;2022-07-21T14:17:26;4.18;;;3.20;;
71046;SDS011;58703;48.978;8.982;2022-07-21T14:19:52;3.38;;;3.08;;
71046;SDS011;58703;48.978;8.982;2022-07-21T14:22:19;3.40;;;3.08;;
71046;SDS011;58703;48.978;8.982;2022-07-21T14:24:48;5.38;;;3.55;;
71046;SDS011;58703;48.978;8.982;2022-07-21T14:27:33;4.77;;;4.13;;
71046;SDS011;58703;48.978;8.982;2022-07-21T14:30:00;3.35;;;3.10;;
71046;SDS011;58703;48.978;8.982;2022-07-21T14:32:27;3.67;;;3.25;;
71046;SDS011;58703;48.978;8.982;2022-07-21T14:34:54;4.00;;;3.38;;
71046;SDS011;58703;48.978;8.982;2022-07-21T14:37:21;3.70;;;3.40;;
71046;SDS011;58703;48.978;8.982;2022-07-21T14:39:48;3.67;;;3.37;;
71046;SDS011;58703;48.978;8.982;2022-07-21T14:42:16;3.90;;;3.53;;
71046;SDS011;58703;48.978;8.982;2022-07-21T14:44:43;4.05;;;3.42;;
71046;SDS011;58703;48.978;8.982;2022-07-21T14:47:12;4.65;;;3.88;;
71046;SDS011;58703;48.978;8.982;2022-07-21T14:49:39;4.28;;;3.80;;
71046;SDS011;58703;48.978;8.982;2022-07-21T14:52:06;4.20;;;3.37;;
71046;SDS011;58703;48.978;8.982;2022-07-21T14:54:35;4.20;;;3.80;;
71046;SDS011;58703;48.978;8.982;2022-07-21T14:57:02;3.80;;;3.50;;
71046;SDS011;58703;48.978;8.982;2022-07-21T14:59:30;4.85;;;3.47;;
71046;SDS011;58703;48.978;8.982;2022-07-21T15:01:58;4.32;;;3.60;;
71046;SDS011;58703;48.978;8.982;2022-07-21T15:04:25;4.37;;;3.97;;
71046;SDS011;58703;48.978;8.982;2022-07-21T15:06:52;5.18;;;3.70;;
71046;SDS011;58703;48.978;8.982;2022-07-21T15:09:19;5.22;;;3.45;;
71046;SDS011;58703;48.978;8.982;2022-07-21T15:11:45;4.88;;;4.38;;